Portada
METAR-TAF:

METAR-TAF

Aeroports :

Kosrae, Micronèsia

latitud: 05-21N, longitud: 162-57E, altitud: 3 m

Observació

L'informe es va fer fa 10 hores i 48 minuts, a les 03:50 UTC
Vent 12 kt del Est/Nord-Est
Temperatura 31°C
Humitat 71%
Pressió 1007 hPa
Visibilitat: 16.1 km
Núvols disperses a una alçada de 2000 ft, Cumulus congestus.
Núvols disperses a una alçada de 13000 ft
Cel ennuvolat a una alçada de 30000 ft

METAR: PTSA 090350Z 07012KT 10SM SCT020TCU SCT130 BKN300 31/25 A2973 RMK TCU SW LAST

Hora: 01:38 (14:38 UTC)

Pronòstic

L'informe es va fer fa 15 hores i 18 minuts, a les 23:20 UTC
Pronòstic vàlid del 09 a les 00 UTC al 09 a les 24 UTC
Vent 9 kt del Sud-Est
Visibilitat: 10 km
Núvols disperses a una alçada de 2000 ft
xàfecs en les proximitats

TAF: PTSA 082320Z 0900/0924 14009KT P6SM VCSH SCT020

Observacions i pronòstics meteorològics de més de 4000 aeroports (METAR i TAF).

Les estacions disponibles són els punts grocs i vermells al mapa.

Posi el ratolí al punt desitjat per veure el nom de l'estació.

Feu clic per veure les observacions i els pronòstics meteorològics.

Per canviar el mapa: feu clic els botons verds amb una creu de color negre per apropar; al botó verd amb un guió per allunyar la imatge; o en les fletxes verdes per a mapes adjacents.


METAR-TAF: